ADDS METAR Data INFO
IDs: Format: Raw Decoded Include TAF

Data at: 2014 UTC 18 Jul 2018

KDLP 181955Z AUTO VRB03G20KT 9SM FEW019 FEW028 SCT034 28/25 A2999 RMK A01
KDLP 181935Z AUTO 25018KT 9SM SCT026 BKN075 28/22 A2999 RMK A01
KDLP 181915Z AUTO 29013G18KT 9SM SCT026 28/25 A3000 RMK A01
KDLP 181855Z AUTO 27008G15KT 10SM CLR 29/25 A3001 RMK A01
KDLP 181835Z AUTO 26011KT 9SM CLR 29/24 A3001 RMK A01
KDLP 181815Z AUTO 25013KT 10SM SCT070 29/25 A3002 RMK A01
KDLP 181755Z AUTO 26013KT 9SM SCT070 29/26 A3002 RMK A01
KDLP 181735Z AUTO 28010G15KT 9SM FEW070 28/25 A3001 RMK A01
KDLP 181715Z AUTO 27009G16KT 250V310 9SM CLR 28/26 A3002 RMK A01
KDLP 181655Z AUTO 26012KT 8SM CLR 28/26 A3001 RMK A01
KDLP 181635Z AUTO 25016KT 9SM CLR 28/26 A3002 RMK A01
KDLP 181615Z AUTO 26015G21KT 9SM CLR 28/25 A3002 RMK A01
KDLP 181555Z AUTO 26014G19KT 9SM FEW023 SCT070 28/25 A3002 RMK A01
KDLP 181535Z AUTO 26018G24KT 9SM BKN070 28/25 A3002 RMK A01
KDLP 181515Z AUTO 25018KT 9SM FEW022 BKN070 29/25 A3002 RMK A01
KDLP 181455Z AUTO 24016G22KT 9SM OVC065 29/25 A3001 RMK A01
KDLP 181435Z AUTO 25021KT 9SM OVC065 28/24 A3002 RMK A01
KDLP 181415Z AUTO 29010G16KT 9SM OVC070 28/26 A3002 RMK A01
KDLP 181355Z AUTO 00000KT 9SM BKN070 BKN095 29/24 A3003 RMK A01
KDLP 181335Z AUTO 00000KT 8SM BKN070 BKN095 28/25 A3002 RMK A01
KDLP 181315Z AUTO VRB04G11KT 8SM BKN070 BKN100 BKN120 28/25 A3002 RMK A01
KDLP 181255Z AUTO VRB04G10KT 9SM FEW080 SCT095 BKN110 29/24 A3002 RMK A01
KDLP 181235Z AUTO 00000G11KT 7SM FEW055 SCT075 BKN110 28/25 A3002 RMK A01
KDLP 181215Z AUTO 31013G19KT 8SM SCT025 SCT055 BKN090 27/24 A3001 RMK A01
KDLP 181155Z AUTO 29008G14KT 9SM FEW075 BKN085 BKN110 29/25 A3000 RMK A01
KDLP 181135Z AUTO 25012KT 9SM FEW070 OVC085 30/25 A3000 RMK A01
KDLP 181115Z AUTO 25014KT 10SM BKN070 OVC085 30/24 A2999 RMK A01
KDLP 181055Z AUTO 25014KT 10SM FEW027 FEW035 OVC065 30/24 A2999 RMK A01
KDLP 181035Z AUTO 23011G17KT 10SM SCT027 SCT035 SCT065 29/25 A3000 RMK A01
KDLP 181015Z AUTO 23015KT 9SM FEW070 28/25 A2999 RMK A01
KDLP 180955Z AUTO 23015KT 9SM SCT050 SCT065 BKN070 28/24 A2999 RMK A01
KDLP 180935Z AUTO 23011G17KT 10SM BKN060 OVC070 30/25 A2999 RMK A01
KDLP 180915Z AUTO 24012G22KT 10SM FEW026 SCT034 BKN046 29/25 A2999 RMK A01
KDLP 180855Z AUTO 23016G22KT 10SM BKN026 BKN038 OVC080 28/24 A2999 RMK A01
KDLP 180835Z AUTO 22020KT 10SM FEW065 BKN080 28/25 A2999 RMK A01
KDLP 180815Z AUTO 23015G20KT 10SM FEW040 FEW046 SCT060 28/25 A2998 RMK A01
KDLP 180755Z AUTO 23012G19KT 10SM FEW040 SCT046 BKN065 28/25 A2999 RMK A01
KDLP 180735Z AUTO 24014G20KT 10SM FEW110 28/23 A2999 RMK A01
KDLP 180715Z AUTO 22017KT 10SM FEW075 27/24 A2999 RMK A01
KDLP 180655Z AUTO 23016KT 9SM SCT075 SCT085 SCT120 28/25 A3000 RMK A01
KDLP 180635Z AUTO 23010G19KT 10SM FEW070 BKN080 BKN120 28/25 A3000 RMK A01
KDLP 180615Z AUTO 22013G20KT 9SM FEW028 SCT050 BKN075 28/25 A3001 RMK A01
KDLP 180555Z AUTO 26014G20KT 9SM FEW027 SCT032 BKN080 29/24 A3001 RMK A01
KDLP 180535Z AUTO 24011G16KT 9SM FEW018 FEW050 31/25 A3001 RMK A01
KDLP 180515Z AUTO 23011KT 9SM FEW018 FEW037 SCT046 31/27 A3002 RMK A01
KDLP 180455Z AUTO 23008KT 9SM FEW019 FEW026 SCT036 31/26 A3002 RMK A01
KDLP 180435Z AUTO 23008KT 9SM FEW019 SCT025 BKN049 30/27 A3002 RMK A01
KDLP 180415Z AUTO 23005KT 10SM SCT019 BKN023 BKN029 29/27 A3002 RMK A01
KDLP 180355Z AUTO 19006KT 10SM SCT019 SCT025 BKN031 28/28 A3003 RMK A01
KDLP 180335Z AUTO 17006KT 10SM CLR 29/27 A3002 RMK A01
KDLP 180315Z AUTO 18008KT 10SM CLR 28/27 A3002 RMK A01
KDLP 180255Z AUTO 18006KT 10SM CLR 28/27 A3001 RMK A01
KDLP 180235Z AUTO 19006KT 10SM FEW039 28/27 A3001 RMK A01
KDLP 180215Z AUTO 20005KT 10SM CLR 28/27 A3001 RMK A01
KDLP 180155Z AUTO 00000KT 10SM CLR 29/27 A3001 RMK A01
KDLP 180135Z AUTO 00000KT 10SM CLR 30/26 A3000 RMK A01
KDLP 180115Z AUTO 33004KT 10SM CLR 28/27 A3000 RMK A01
KDLP 180055Z AUTO 34006KT 9SM CLR 28/27 A3000 RMK A01
KDLP 180035Z AUTO 33005KT 9SM CLR 27/27 A3001 RMK A01
KDLP 180015Z AUTO 36008KT 9SM FEW021 27/27 A3001 RMK A01
KDLP 172355Z AUTO 35012KT 7SM SCT021 29/26 A3001 RMK A01
KDLP 172335Z AUTO 00000KT 8SM CLR 29/26 A3001 RMK A01
KDLP 172315Z AUTO 00000KT 7SM CLR 29/26 A3001 RMK A01
KDLP 172255Z AUTO 00000KT 8SM CLR 29/25 A3002 RMK A01
KDLP 172235Z AUTO 31005KT 8SM CLR 29/25 A3003 RMK A01
KDLP 172215Z AUTO VRB03KT 8SM CLR 29/25 A3004 RMK A01
KDLP 172155Z AUTO 00000KT 8SM CLR 29/24 A3004 RMK A01
KDLP 172135Z AUTO 00000KT 8SM CLR 28/25 A3004 RMK A01
KDLP 172115Z AUTO 00000KT 9SM CLR 29/24 A3004 RMK A01
KDLP 172055Z AUTO 29008KT 9SM CLR 28/25 A3004 RMK A01
KDLP 172035Z AUTO 27008KT 9SM CLR 28/26 A3004 RMK A01
KDLP 172015Z AUTO 26009G15KT 9SM 28/27 A3004 RMK A01
KDLP 171955Z AUTO 26009KT 28/26 A3005 RMK A01
KDLP 171935Z AUTO 25012KT 10SM CLR 30/25 A3005 RMK A01
KDLP 171915Z AUTO 25011KT 9SM CLR 31/25 A3005 RMK A01
KDLP 171855Z AUTO 24008G14KT 8SM CLR 29/25 A3005 RMK A01
KDLP 171835Z AUTO 23009G22KT 8SM CLR 28/25 A3005 RMK A01
KDLP 171815Z AUTO 23011KT 9SM CLR 28/25 A3006 RMK A01
KDLP 171755Z AUTO 22013KT 9SM CLR 28/24 A3007 RMK A01
KDLP 171735Z AUTO 23009G14KT 10SM CLR 28/24 A3008 RMK A01
KDLP 171715Z AUTO 25013KT 9SM CLR 28/24 A3008 RMK A01
KDLP 171655Z AUTO 25012KT 9SM CLR 28/25 A3008 RMK A01
KDLP 171635Z AUTO 25015KT 9SM CLR 27/25 A3009 RMK A01
KDLP 171615Z AUTO 25016KT 7SM CLR 27/25 A3008 RMK A01
KDLP 171555Z AUTO 27010G16KT 8SM CLR 25/25 A3009 RMK A01
KDLP 171535Z AUTO 29009G16KT 1 3/4SM BR VV007 25/24 A3009 RMK A01
KDLP 171515Z AUTO 31009G19KT 280V020 1 1/2SM BR VV007 25/25 A3009 RMK A01
KDLP 171455Z AUTO 30009G16KT 280V360 1 1/4SM BR SCT038 25/25 A3009 RMK A01
KDLP 171435Z AUTO 25017KT 1SM BR FEW003 SCT028 SCT034 26/25 A3009 RMK A01
KDLP 171415Z AUTO 25017KT 1/2SM BR SCT003 SCT015 BKN036 26/25 A3010 RMK A01
KDLP 171355Z AUTO 28008G14KT 220V360 1 3/4SM BR SCT032 BKN040 BKN046 26/24 A3010 RMK A01
KDLP 171335Z AUTO 00000KT 10SM BKN040 BKN047 26/25 A3008 RMK A01
KDLP 171315Z AUTO 27010G16KT 10SM FEW033 FEW070 27/24 A3006 RMK A01
KDLP 171255Z AUTO 25017KT 10SM FEW032 SCT039 SCT045 28/22 A3006 RMK A01
KDLP 171235Z AUTO 24013G20KT 10SM FEW022 SCT040 BKN046 27/23 A3005 RMK A01
KDLP 171215Z AUTO 25018G24KT 9SM BKN021 BKN032 OVC039 27/24 A3006 RMK A01
KDLP 171155Z AUTO 29013G26KT 250V350 9SM BKN022 OVC027 33/24 A3005 RMK A01
KDLP 171135Z AUTO 23005KT 9SM BKN022 33/25 A3004 RMK A01
KDLP 171115Z AUTO 25004KT 10SM CLR 36/24 A3003 RMK A01
KDLP 171055Z AUTO VRB03KT 10SM FEW055 FEW065 SCT075 35/25 A3003 RMK A01
KDLP 171035Z AUTO 00000KT 8SM FEW039 SCT050 BKN060 33/24 A3003 RMK A01
KDLP 171015Z AUTO 19007KT 10SM FEW023 SCT044 BKN055 28/24 A3003 RMK A01
KDLP 170955Z AUTO 17008KT 10SM BKN023 BKN032 BKN090 29/22 A3002 RMK A01
KDLP 170935Z AUTO 18008KT 10SM SCT022 SCT032 BKN090 29/23 A3003 RMK A01
KDLP 170915Z AUTO 19009KT 10SM FEW022 FEW036 SCT050 28/23 A3002 RMK A01
KDLP 170855Z AUTO 22009KT 10SM BKN050 BKN060 BKN075 29/24 A3003 RMK A01
KDLP 170835Z AUTO VRB05KT 10SM FEW055 29/25 A3002 RMK A01
KDLP 170815Z AUTO 00000G10KT 10SM CLR 28/23 A3000 RMK A01